createdAt,value
2022-10-04T00:01:07.386Z,8.60
2022-10-04T00:03:44.929Z,8.60
2022-10-04T00:06:18.114Z,8.60
2022-10-04T00:08:50.447Z,8.60
2022-10-04T00:11:23.594Z,8.50
2022-10-04T00:13:54.869Z,8.50
2022-10-04T00:16:27.990Z,8.50
2022-10-04T00:19:22.590Z,8.50
2022-10-04T00:22:20.681Z,8.50
2022-10-04T00:25:20.571Z,8.40
2022-10-04T00:28:18.097Z,8.40
2022-10-04T00:30:46.050Z,8.40
2022-10-04T00:33:38.619Z,8.40
2022-10-04T00:36:40.894Z,8.40
2022-10-04T00:39:27.227Z,8.30
2022-10-04T00:42:07.571Z,8.30
2022-10-04T00:44:42.122Z,8.30
2022-10-04T00:47:25.267Z,8.40
2022-10-04T00:50:00.063Z,8.40
2022-10-04T00:52:33.131Z,8.40
2022-10-04T00:55:07.378Z,8.40
2022-10-04T00:57:40.286Z,8.40
2022-10-04T01:00:13.339Z,8.40
2022-10-04T01:02:52.812Z,8.30
2022-10-04T01:05:24.384Z,8.30
2022-10-04T01:07:56.330Z,8.30
2022-10-04T01:10:30.078Z,8.30
2022-10-04T01:13:04.243Z,8.30
2022-10-04T01:15:42.794Z,8.30
2022-10-04T01:18:14.678Z,8.20
2022-10-04T01:20:54.444Z,8.20
2022-10-04T01:23:42.717Z,8.20
2022-10-04T01:26:39.929Z,8.20
2022-10-04T01:29:10.865Z,8.20
2022-10-04T01:31:41.285Z,8.20
2022-10-04T01:34:09.944Z,8.20
2022-10-04T01:36:38.122Z,8.20
2022-10-04T01:39:08.378Z,8.20
2022-10-04T01:41:46.432Z,8.20
2022-10-04T01:44:21.826Z,8.20
2022-10-04T01:46:51.352Z,8.20
2022-10-04T01:49:23.144Z,8.20
2022-10-04T01:51:57.437Z,8.20
2022-10-04T01:54:34.916Z,8.20
2022-10-04T01:57:08.524Z,8.20
2022-10-04T01:59:47.544Z,8.20
2022-10-04T02:02:24.447Z,8.20
2022-10-04T02:04:56.687Z,8.20
2022-10-04T02:07:28.240Z,8.20
2022-10-04T02:10:00.575Z,8.20
2022-10-04T02:12:31.395Z,8.20
2022-10-04T02:15:02.353Z,8.20
2022-10-04T02:17:32.990Z,8.20
2022-10-04T02:20:02.911Z,8.20
2022-10-04T02:22:31.504Z,8.20
2022-10-04T02:25:01.202Z,8.20
2022-10-04T02:27:31.134Z,8.20
2022-10-04T02:30:03.717Z,8.20
2022-10-04T02:32:49.721Z,8.20
2022-10-04T02:35:19.062Z,8.10
2022-10-04T02:37:49.713Z,8.10
2022-10-04T02:40:22.976Z,8.10
2022-10-04T02:42:59.749Z,8.00
2022-10-04T02:45:36.159Z,8.00
2022-10-04T02:48:12.730Z,8.10
2022-10-04T02:50:48.432Z,8.10
2022-10-04T02:53:22.811Z,8.10
2022-10-04T02:55:52.504Z,8.10
2022-10-04T02:58:24.391Z,8.00
2022-10-04T03:00:56.840Z,8.00
2022-10-04T03:03:25.865Z,8.00
2022-10-04T03:06:04.949Z,8.00
2022-10-04T03:08:37.466Z,8.00
2022-10-04T03:11:08.126Z,7.90
2022-10-04T03:13:37.250Z,8.00
2022-10-04T03:16:06.888Z,8.00
2022-10-04T03:18:37.854Z,7.90
2022-10-04T03:21:11.155Z,7.90
2022-10-04T03:23:40.454Z,7.90
2022-10-04T03:26:21.041Z,7.90
2022-10-04T03:28:49.593Z,7.90
2022-10-04T03:31:19.906Z,7.90
2022-10-04T03:33:48.447Z,7.90
2022-10-04T03:36:19.525Z,7.90
2022-10-04T03:38:49.233Z,7.90
2022-10-04T03:41:18.807Z,7.90
2022-10-04T03:43:50.179Z,7.90
2022-10-04T03:46:19.877Z,7.90
2022-10-04T03:48:51.282Z,7.90
2022-10-04T03:51:22.896Z,8.00
2022-10-04T03:53:55.564Z,8.00
2022-10-04T03:56:28.106Z,8.00
2022-10-04T03:58:56.128Z,8.00
2022-10-04T04:01:46.704Z,8.00
2022-10-04T04:04:22.129Z,8.00
2022-10-04T04:06:57.393Z,8.00
2022-10-04T04:09:35.973Z,7.90
2022-10-04T04:12:11.359Z,7.90
2022-10-04T04:14:42.326Z,7.90
2022-10-04T04:17:41.736Z,7.90
2022-10-04T04:20:26.592Z,8.00
2022-10-04T04:23:01.753Z,7.90
2022-10-04T04:25:33.568Z,7.90
2022-10-04T04:28:19.084Z,7.90
2022-10-04T04:30:49.549Z,7.90
2022-10-04T04:33:26.977Z,8.00
2022-10-04T04:36:05.369Z,8.00
2022-10-04T04:38:35.264Z,8.00
2022-10-04T04:41:10.941Z,8.10
2022-10-04T04:43:45.017Z,8.10
2022-10-04T04:46:27.118Z,8.10
2022-10-04T04:49:03.930Z,8.20
2022-10-04T04:51:33.907Z,8.10
2022-10-04T04:54:05.724Z,8.10
2022-10-04T04:56:34.417Z,8.10
2022-10-04T04:59:07.447Z,8.10
2022-10-04T05:01:37.831Z,8.20
2022-10-04T05:04:07.929Z,8.20
2022-10-04T05:06:38.241Z,8.20
2022-10-04T05:09:07.346Z,8.30
2022-10-04T05:11:38.545Z,8.30
2022-10-04T05:14:10.582Z,8.30
2022-10-04T05:16:43.234Z,8.30
2022-10-04T05:19:16.705Z,8.30
2022-10-04T05:21:47.682Z,8.30
2022-10-04T05:24:22.249Z,8.40
2022-10-04T05:26:52.571Z,8.40
2022-10-04T05:29:25.194Z,8.40
2022-10-04T05:31:57.311Z,8.50
2022-10-04T05:34:27.084Z,8.50
2022-10-04T05:37:30.839Z,8.50
2022-10-04T05:40:08.019Z,8.50
2022-10-04T05:42:45.155Z,8.40
2022-10-04T05:45:19.780Z,8.50
2022-10-04T05:47:50.512Z,8.50
2022-10-04T05:50:21.829Z,8.50
2022-10-04T05:52:52.821Z,8.50
2022-10-04T05:55:28.148Z,8.50
2022-10-04T05:58:25.665Z,8.60
2022-10-04T06:01:24.278Z,8.70
2022-10-04T06:04:17.615Z,8.70
2022-10-04T06:06:51.493Z,8.70
2022-10-04T06:09:46.984Z,8.80
2022-10-04T06:12:23.081Z,8.70
2022-10-04T06:15:17.044Z,8.70
2022-10-04T06:18:01.900Z,8.60
2022-10-04T06:20:52.537Z,8.60
2022-10-04T06:23:21.113Z,8.60
2022-10-04T06:25:52.827Z,8.60
2022-10-04T06:28:25.390Z,8.60
2022-10-04T06:31:05.150Z,8.60
2022-10-04T06:33:52.694Z,8.70
2022-10-04T06:36:37.795Z,8.60
2022-10-04T06:39:34.035Z,8.70
2022-10-04T06:42:18.441Z,8.80
2022-10-04T06:45:21.170Z,8.90
2022-10-04T06:48:09.868Z,9.00
2022-10-04T06:50:49.680Z,9.00
2022-10-04T06:53:27.220Z,9.00
2022-10-04T06:56:25.290Z,9.10
2022-10-04T06:59:11.165Z,9.20
2022-10-04T07:01:49.665Z,9.30
2022-10-04T07:04:41.108Z,9.00
2022-10-04T07:07:35.419Z,9.00
2022-10-04T07:10:16.502Z,9.10
2022-10-04T07:12:49.585Z,9.20
2022-10-04T07:15:22.542Z,9.20
2022-10-04T07:17:53.931Z,9.20
2022-10-04T07:20:27.142Z,9.30
2022-10-04T07:22:59.525Z,9.30
2022-10-04T07:25:31.478Z,9.30
2022-10-04T07:28:33.516Z,9.30
2022-10-04T07:31:06.261Z,9.30
2022-10-04T07:33:43.520Z,9.50
2022-10-04T07:36:13.775Z,9.60
2022-10-04T07:38:49.837Z,9.70
2022-10-04T07:41:26.405Z,9.80
2022-10-04T07:43:59.486Z,9.90
2022-10-04T07:46:40.166Z,10.00
2022-10-04T07:49:15.341Z,10.20
2022-10-04T07:51:55.757Z,10.20
2022-10-04T07:54:34.175Z,10.30
2022-10-04T07:57:09.402Z,10.50
2022-10-04T07:59:46.203Z,10.70
2022-10-04T08:02:25.690Z,10.90
2022-10-04T08:05:01.469Z,10.80
2022-10-04T08:07:42.988Z,10.80
2022-10-04T08:10:19.372Z,10.80
2022-10-04T08:12:53.227Z,10.90
2022-10-04T08:15:37.744Z,10.80
2022-10-04T08:18:22.490Z,10.90
2022-10-04T08:20:57.836Z,10.90
2022-10-04T08:23:51.974Z,11.00
2022-10-04T08:26:55.264Z,11.10
2022-10-04T08:29:53.338Z,11.20
2022-10-04T08:32:30.879Z,11.40
2022-10-04T08:35:17.367Z,11.40
2022-10-04T08:37:55.709Z,11.50
2022-10-04T08:40:48.092Z,11.40
2022-10-04T08:43:58.049Z,11.50
2022-10-04T08:46:54.049Z,11.60
2022-10-04T08:49:58.225Z,11.90
2022-10-04T08:52:57.156Z,12.00
2022-10-04T08:55:42.673Z,12.20
2022-10-04T08:58:46.404Z,12.30
2022-10-04T09:01:44.118Z,12.40
2022-10-04T09:04:53.117Z,12.50
2022-10-04T09:07:58.610Z,12.50
2022-10-04T09:10:58.326Z,12.40
2022-10-04T09:13:41.472Z,12.60
2022-10-04T09:16:17.684Z,12.80
2022-10-04T09:19:23.795Z,12.90
2022-10-04T09:22:11.532Z,13.10
2022-10-04T09:25:09.143Z,13.10
2022-10-04T09:27:59.629Z,13.20
2022-10-04T09:30:38.830Z,13.30
2022-10-04T09:33:33.552Z,13.40
2022-10-04T09:36:22.561Z,13.50
2022-10-04T09:39:29.475Z,13.60
2022-10-04T09:42:15.144Z,13.60
2022-10-04T09:45:16.048Z,13.70
2022-10-04T09:47:46.293Z,13.80
2022-10-04T09:51:08.302Z,13.80
2022-10-04T09:53:52.920Z,13.80
2022-10-04T09:56:40.946Z,13.80
2022-10-04T09:59:41.116Z,13.90
2022-10-04T10:02:55.507Z,14.20
2022-10-04T10:05:42.751Z,14.40
2022-10-04T10:08:18.023Z,14.50
2022-10-04T10:11:16.079Z,14.50
2022-10-04T10:14:07.850Z,14.70
2022-10-04T10:16:49.025Z,14.90
2022-10-04T10:19:41.087Z,15.00
2022-10-04T10:22:21.787Z,15.10
2022-10-04T10:25:16.557Z,15.30
2022-10-04T10:28:19.160Z,15.40
2022-10-04T10:31:04.111Z,15.40
2022-10-04T10:33:54.474Z,15.60
2022-10-04T10:36:39.590Z,15.80
2022-10-04T10:39:34.216Z,16.00
2022-10-04T10:42:27.597Z,16.20
2022-10-04T10:45:15.651Z,16.40
2022-10-04T10:47:53.665Z,16.40
2022-10-04T10:50:59.572Z,16.70
2022-10-04T10:54:13.710Z,17.10
2022-10-04T10:56:54.040Z,17.70
2022-10-04T10:59:56.247Z,18.90
2022-10-04T11:03:13.050Z,20.50
2022-10-04T11:06:14.013Z,21.80
2022-10-04T11:09:10.895Z,22.00
2022-10-04T11:12:05.628Z,21.40
2022-10-04T11:15:30.447Z,21.90
2022-10-04T11:18:34.151Z,23.50
2022-10-04T11:21:44.802Z,24.20
2022-10-04T11:24:47.351Z,23.90
2022-10-04T11:27:28.452Z,24.40
2022-10-04T11:30:20.920Z,25.20
2022-10-04T11:33:25.609Z,26.20
2022-10-04T11:36:24.460Z,27.50
2022-10-04T11:39:09.178Z,28.90
2022-10-04T11:41:50.272Z,29.30
2022-10-04T11:44:47.415Z,29.50
2022-10-04T11:47:29.994Z,29.10
2022-10-04T11:50:21.186Z,29.80
2022-10-04T11:53:31.224Z,30.50
2022-10-04T11:56:12.361Z,30.80
2022-10-04T11:58:53.844Z,30.70
2022-10-04T12:01:46.877Z,31.30
2022-10-04T12:04:53.743Z,32.40
2022-10-04T12:07:50.017Z,32.60
2022-10-04T12:10:25.658Z,31.70
2022-10-04T12:13:42.279Z,31.90
2022-10-04T12:16:46.570Z,32.50
2022-10-04T12:19:41.225Z,33.50
2022-10-04T12:22:28.482Z,34.10
2022-10-04T12:25:34.261Z,34.30
2022-10-04T12:28:31.614Z,34.00
2022-10-04T12:31:20.078Z,34.00
2022-10-04T12:33:55.195Z,34.50
2022-10-04T12:36:38.268Z,34.80
2022-10-04T12:39:26.473Z,35.10
2022-10-04T12:42:07.805Z,35.60
2022-10-04T12:44:45.748Z,35.70
2022-10-04T12:47:45.684Z,35.40
2022-10-04T12:50:26.077Z,35.60
2022-10-04T12:52:59.925Z,35.20
2022-10-04T12:55:47.768Z,33.90
2022-10-04T12:58:24.799Z,31.50
2022-10-04T13:00:57.760Z,29.30
2022-10-04T13:03:40.131Z,27.70
2022-10-04T13:06:17.130Z,26.10
2022-10-04T13:09:02.053Z,24.90
2022-10-04T13:11:52.341Z,23.80
2022-10-04T13:14:46.734Z,23.20
2022-10-04T13:17:34.538Z,22.30
2022-10-04T13:20:23.146Z,21.90
2022-10-04T13:22:58.079Z,21.40
2022-10-04T13:26:04.179Z,21.10
2022-10-04T13:28:41.197Z,20.60
2022-10-04T13:31:24.442Z,20.20
2022-10-04T13:34:04.620Z,20.10
2022-10-04T13:36:46.793Z,19.90
2022-10-04T13:39:34.487Z,19.80
2022-10-04T13:42:17.355Z,19.60
2022-10-04T13:44:56.770Z,19.50
2022-10-04T13:47:53.687Z,19.40
2022-10-04T13:50:42.295Z,19.30
2022-10-04T13:53:42.413Z,19.30
2022-10-04T13:56:40.040Z,19.20
2022-10-04T13:59:17.161Z,19.20
2022-10-04T14:02:19.307Z,19.10
2022-10-04T14:05:18.873Z,19.10
2022-10-04T14:08:21.309Z,19.10
2022-10-04T14:11:18.140Z,19.00
2022-10-04T14:14:33.130Z,19.10
2022-10-04T14:17:33.891Z,19.00
2022-10-04T14:20:49.440Z,18.90
2022-10-04T14:23:52.070Z,18.80
2022-10-04T14:27:03.492Z,18.90
2022-10-04T14:29:53.099Z,18.90
2022-10-04T14:33:02.759Z,18.90
2022-10-04T14:35:34.521Z,18.90
2022-10-04T14:38:47.362Z,18.80
2022-10-04T14:41:46.387Z,18.70
2022-10-04T14:44:38.160Z,18.70
2022-10-04T14:47:21.497Z,18.60
2022-10-04T14:50:06.431Z,18.60
2022-10-04T14:52:44.450Z,18.60
2022-10-04T14:55:32.505Z,18.50
2022-10-04T14:58:16.271Z,18.50
2022-10-04T15:01:04.232Z,18.50
2022-10-04T15:03:40.559Z,18.40
2022-10-04T15:06:18.885Z,18.40
2022-10-04T15:09:14.651Z,18.30
2022-10-04T15:12:21.504Z,18.30
2022-10-04T15:14:46.426Z,18.20
2022-10-04T15:17:27.514Z,18.10
2022-10-04T15:20:06.441Z,18.00
2022-10-04T15:22:42.473Z,17.90
2022-10-04T15:25:39.030Z,17.90
2022-10-04T15:28:28.540Z,17.80
2022-10-04T15:31:03.237Z,17.80
2022-10-04T15:33:40.493Z,17.70
2022-10-04T15:36:28.482Z,17.70
2022-10-04T15:39:03.116Z,17.60
2022-10-04T15:41:38.267Z,17.60
2022-10-04T15:44:44.173Z,17.60
2022-10-04T15:47:20.904Z,17.50
2022-10-04T15:49:58.118Z,17.40
2022-10-04T15:52:54.102Z,17.40
2022-10-04T15:55:33.884Z,17.30
2022-10-04T15:58:28.225Z,17.20
2022-10-04T16:01:30.500Z,17.10
2022-10-04T16:04:23.285Z,17.00
2022-10-04T16:06:54.038Z,16.90
2022-10-04T16:09:34.405Z,16.80
2022-10-04T16:12:19.240Z,16.70
2022-10-04T16:14:59.573Z,16.70
2022-10-04T16:18:05.203Z,16.60
2022-10-04T16:20:52.196Z,16.60
2022-10-04T16:23:39.993Z,16.50
2022-10-04T16:26:11.434Z,16.40
2022-10-04T16:29:06.794Z,16.40
2022-10-04T16:31:55.753Z,16.30
2022-10-04T16:34:49.690Z,16.20
2022-10-04T16:37:29.948Z,16.10
2022-10-04T16:40:00.779Z,16.00
2022-10-04T16:42:34.667Z,15.90
2022-10-04T16:45:44.053Z,15.90
2022-10-04T16:48:33.956Z,15.80
2022-10-04T16:51:32.343Z,15.60
2022-10-04T16:54:08.125Z,15.50
2022-10-04T16:57:12.464Z,15.40
2022-10-04T16:59:57.656Z,15.30
2022-10-04T17:03:04.909Z,15.20
2022-10-04T17:05:47.358Z,15.10
2022-10-04T17:08:27.691Z,15.00
2022-10-04T17:11:38.866Z,14.80
2022-10-04T17:14:34.444Z,14.70
2022-10-04T17:17:12.067Z,14.60
2022-10-04T17:19:45.025Z,14.50
2022-10-04T17:22:23.384Z,14.50
2022-10-04T17:25:09.275Z,14.40
2022-10-04T17:27:48.499Z,14.30
2022-10-04T17:30:19.411Z,14.30
2022-10-04T17:33:15.882Z,14.20
2022-10-04T17:36:01.433Z,14.10
2022-10-04T17:38:36.685Z,14.00
2022-10-04T17:41:18.185Z,13.90
2022-10-04T17:44:13.668Z,13.90
2022-10-04T17:46:51.286Z,13.80
2022-10-04T17:49:46.318Z,13.70
2022-10-04T17:52:32.243Z,13.70
2022-10-04T17:55:16.752Z,13.60
2022-10-04T17:57:53.875Z,13.50
2022-10-04T18:00:24.565Z,13.50
2022-10-04T18:03:02.665Z,13.50
2022-10-04T18:05:36.811Z,13.40
2022-10-04T18:08:12.551Z,13.40
2022-10-04T18:10:47.439Z,13.40
2022-10-04T18:13:24.515Z,13.30
2022-10-04T18:15:55.933Z,13.20
2022-10-04T18:18:28.501Z,13.20
2022-10-04T18:21:05.311Z,13.20
2022-10-04T18:23:36.421Z,13.20
2022-10-04T18:26:11.907Z,13.10
2022-10-04T18:28:41.252Z,13.10
2022-10-04T18:31:29.569Z,13.10
2022-10-04T18:34:00.618Z,13.00
2022-10-04T18:36:32.792Z,13.00
2022-10-04T18:39:20.736Z,12.90
2022-10-04T18:42:02.329Z,12.90
2022-10-04T18:44:45.137Z,12.90
2022-10-04T18:47:16.879Z,12.80
2022-10-04T18:49:51.063Z,12.80
2022-10-04T18:52:34.858Z,12.70
2022-10-04T18:55:19.415Z,12.70
2022-10-04T18:58:11.488Z,12.70
2022-10-04T19:01:02.133Z,12.70
2022-10-04T19:03:41.510Z,12.60
2022-10-04T19:06:17.335Z,12.60
2022-10-04T19:08:54.247Z,12.60
2022-10-04T19:11:29.559Z,12.50
2022-10-04T19:14:08.433Z,12.50
2022-10-04T19:16:45.025Z,12.50
2022-10-04T19:19:34.843Z,12.50
2022-10-04T19:22:11.312Z,12.50
2022-10-04T19:25:06.009Z,12.40
2022-10-04T19:27:38.905Z,12.40
2022-10-04T19:30:20.719Z,12.40
2022-10-04T19:33:02.440Z,12.40
2022-10-04T19:35:55.937Z,12.40
2022-10-04T19:38:37.095Z,12.30
2022-10-04T19:41:12.632Z,12.30
2022-10-04T19:43:50.731Z,12.30
2022-10-04T19:46:29.834Z,12.30
2022-10-04T19:48:59.126Z,12.20
2022-10-04T19:51:34.255Z,12.20
2022-10-04T19:54:10.951Z,12.10
2022-10-04T19:56:46.891Z,12.10
2022-10-04T19:59:21.174Z,12.10
2022-10-04T20:01:52.685Z,12.00
2022-10-04T20:04:40.001Z,12.00
2022-10-04T20:07:18.937Z,12.00
2022-10-04T20:09:56.127Z,12.00
2022-10-04T20:12:38.569Z,11.90
2022-10-04T20:15:47.597Z,11.90
2022-10-04T20:18:57.420Z,11.90
2022-10-04T20:21:31.188Z,11.80
2022-10-04T20:24:00.616Z,11.80
2022-10-04T20:27:01.220Z,11.70
2022-10-04T20:30:05.266Z,11.70
2022-10-04T20:33:01.047Z,11.70
2022-10-04T20:36:12.176Z,11.60
2022-10-04T20:38:59.360Z,11.60
2022-10-04T20:42:18.446Z,11.60
2022-10-04T20:45:00.245Z,11.50
2022-10-04T20:47:46.245Z,11.50
2022-10-04T20:50:29.497Z,11.50
2022-10-04T20:52:59.673Z,11.50
2022-10-04T20:55:30.837Z,11.40
2022-10-04T20:58:01.711Z,11.40
2022-10-04T21:00:34.393Z,11.40
2022-10-04T21:03:17.159Z,11.40
2022-10-04T21:05:49.892Z,11.40
2022-10-04T21:08:25.595Z,11.30
2022-10-04T21:11:19.738Z,11.30
2022-10-04T21:13:54.055Z,11.30
2022-10-04T21:16:39.363Z,11.20
2022-10-04T21:19:44.613Z,11.20
2022-10-04T21:22:33.275Z,11.20
2022-10-04T21:25:03.154Z,11.20
2022-10-04T21:27:35.561Z,11.20
2022-10-04T21:30:15.999Z,11.20
2022-10-04T21:32:44.067Z,11.20
2022-10-04T21:35:14.099Z,11.20
2022-10-04T21:37:42.062Z,11.20
2022-10-04T21:40:10.681Z,11.20
2022-10-04T21:42:40.016Z,11.20
2022-10-04T21:45:08.845Z,11.30
2022-10-04T21:47:37.163Z,11.20
2022-10-04T21:50:05.458Z,11.30
2022-10-04T21:52:33.545Z,11.20
2022-10-04T21:55:01.605Z,11.20
2022-10-04T21:57:35.540Z,11.20
2022-10-04T22:00:07.666Z,11.20
2022-10-04T22:02:35.641Z,11.20
2022-10-04T22:05:03.623Z,11.20
2022-10-04T22:07:31.678Z,11.20
2022-10-04T22:09:59.537Z,11.20
2022-10-04T22:12:27.755Z,11.10
2022-10-04T22:14:55.662Z,11.10
2022-10-04T22:17:24.891Z,11.10
2022-10-04T22:19:53.633Z,11.10
2022-10-04T22:22:21.575Z,11.10
2022-10-04T22:24:49.518Z,11.10
2022-10-04T22:27:19.863Z,11.00
2022-10-04T22:29:48.242Z,11.00
2022-10-04T22:32:22.595Z,11.00
2022-10-04T22:34:52.464Z,11.00
2022-10-04T22:37:25.058Z,11.10
2022-10-04T22:39:53.611Z,11.00
2022-10-04T22:42:30.748Z,11.00
2022-10-04T22:45:02.007Z,11.00
2022-10-04T22:47:32.524Z,11.00
2022-10-04T22:50:10.968Z,11.00
2022-10-04T22:52:39.097Z,11.10
2022-10-04T22:55:12.288Z,11.10
2022-10-04T22:57:40.209Z,11.10
2022-10-04T23:00:11.165Z,11.10
2022-10-04T23:02:39.207Z,11.20
2022-10-04T23:05:15.106Z,11.20
2022-10-04T23:07:43.452Z,11.20
2022-10-04T23:10:12.387Z,11.20
2022-10-04T23:12:40.888Z,11.20
2022-10-04T23:15:15.347Z,11.20
2022-10-04T23:17:43.269Z,11.30
2022-10-04T23:20:17.019Z,11.30
2022-10-04T23:22:46.209Z,11.30
2022-10-04T23:25:17.201Z,11.30
2022-10-04T23:27:45.891Z,11.30
2022-10-04T23:30:16.716Z,11.30
2022-10-04T23:32:46.466Z,11.30
2022-10-04T23:35:22.286Z,11.30
2022-10-04T23:37:50.827Z,11.20
2022-10-04T23:40:22.332Z,11.20
2022-10-04T23:42:52.702Z,11.20
2022-10-04T23:45:22.582Z,11.20
2022-10-04T23:47:52.784Z,11.20
2022-10-04T23:50:28.118Z,11.20
2022-10-04T23:53:02.311Z,11.20
2022-10-04T23:55:33.747Z,11.20
2022-10-04T23:58:01.924Z,11.20
